sensor_id;sensor_type;location;lat;lon;timestamp;P1;durP1;ratioP1;P2;durP2;ratioP2
16770;SDS011;8503;52.472;13.344;2023-06-26T00:00:21;14.35;;;9.73;;
16770;SDS011;8503;52.472;13.344;2023-06-26T00:01:05;15.02;;;9.45;;
16770;SDS011;8503;52.472;13.344;2023-06-26T00:01:49;16.80;;;10.20;;
16770;SDS011;8503;52.472;13.344;2023-06-26T00:02:32;15.80;;;9.40;;
16770;SDS011;8503;52.472;13.344;2023-06-26T00:03:15;17.30;;;10.10;;
16770;SDS011;8503;52.472;13.344;2023-06-26T00:03:58;14.25;;;9.82;;
16770;SDS011;8503;52.472;13.344;2023-06-26T00:04:42;15.40;;;9.55;;
16770;SDS011;8503;52.472;13.344;2023-06-26T00:05:27;14.65;;;10.25;;
16770;SDS011;8503;52.472;13.344;2023-06-26T00:06:11;13.70;;;9.55;;
16770;SDS011;8503;52.472;13.344;2023-06-26T00:06:55;15.75;;;9.95;;
16770;SDS011;8503;52.472;13.344;2023-06-26T00:07:39;14.85;;;9.75;;
16770;SDS011;8503;52.472;13.344;2023-06-26T00:08:23;14.68;;;10.18;;
16770;SDS011;8503;52.472;13.344;2023-06-26T00:09:06;18.15;;;10.27;;
16770;SDS011;8503;52.472;13.344;2023-06-26T00:09:50;16.45;;;9.10;;
16770;SDS011;8503;52.472;13.344;2023-06-26T00:10:35;15.43;;;10.02;;
16770;SDS011;8503;52.472;13.344;2023-06-26T00:11:18;15.00;;;10.48;;
16770;SDS011;8503;52.472;13.344;2023-06-26T00:12:03;14.02;;;8.95;;
16770;SDS011;8503;52.472;13.344;2023-06-26T00:12:46;16.50;;;9.60;;
16770;SDS011;8503;52.472;13.344;2023-06-26T00:13:30;14.82;;;9.63;;
16770;SDS011;8503;52.472;13.344;2023-06-26T00:14:13;14.60;;;10.32;;
16770;SDS011;8503;52.472;13.344;2023-06-26T00:14:56;14.13;;;9.95;;
16770;SDS011;8503;52.472;13.344;2023-06-26T00:15:40;13.70;;;9.60;;
16770;SDS011;8503;52.472;13.344;2023-06-26T00:16:23;14.98;;;8.88;;
16770;SDS011;8503;52.472;13.344;2023-06-26T00:17:06;16.92;;;10.25;;
16770;SDS011;8503;52.472;13.344;2023-06-26T00:17:49;17.00;;;10.40;;
16770;SDS011;8503;52.472;13.344;2023-06-26T00:18:33;15.55;;;8.80;;
16770;SDS011;8503;52.472;13.344;2023-06-26T00:19:16;13.60;;;9.00;;
16770;SDS011;8503;52.472;13.344;2023-06-26T00:20:00;13.55;;;9.77;;
16770;SDS011;8503;52.472;13.344;2023-06-26T00:20:43;14.57;;;10.05;;
16770;SDS011;8503;52.472;13.344;2023-06-26T00:21:27;17.25;;;9.27;;
16770;SDS011;8503;52.472;13.344;2023-06-26T00:22:10;15.60;;;9.30;;
16770;SDS011;8503;52.472;13.344;2023-06-26T00:22:55;15.35;;;9.75;;
16770;SDS011;8503;52.472;13.344;2023-06-26T00:23:40;19.65;;;9.50;;
16770;SDS011;8503;52.472;13.344;2023-06-26T00:24:24;16.13;;;10.10;;
16770;SDS011;8503;52.472;13.344;2023-06-26T00:25:07;16.33;;;9.98;;
16770;SDS011;8503;52.472;13.344;2023-06-26T00:25:51;17.35;;;10.68;;
16770;SDS011;8503;52.472;13.344;2023-06-26T00:26:33;14.70;;;9.50;;
16770;SDS011;8503;52.472;13.344;2023-06-26T00:27:16;16.33;;;10.27;;
16770;SDS011;8503;52.472;13.344;2023-06-26T00:28:00;15.75;;;9.35;;
16770;SDS011;8503;52.472;13.344;2023-06-26T00:28:43;18.83;;;10.18;;
16770;SDS011;8503;52.472;13.344;2023-06-26T00:29:27;16.27;;;10.02;;
16770;SDS011;8503;52.472;13.344;2023-06-26T00:30:10;14.32;;;9.60;;
16770;SDS011;8503;52.472;13.344;2023-06-26T00:31:38;16.67;;;9.40;;
16770;SDS011;8503;52.472;13.344;2023-06-26T00:32:22;13.13;;;9.32;;
16770;SDS011;8503;52.472;13.344;2023-06-26T00:33:05;15.95;;;9.73;;
16770;SDS011;8503;52.472;13.344;2023-06-26T00:33:48;15.27;;;9.50;;
16770;SDS011;8503;52.472;13.344;2023-06-26T00:34:31;14.75;;;8.95;;
16770;SDS011;8503;52.472;13.344;2023-06-26T00:35:15;25.73;;;12.50;;
16770;SDS011;8503;52.472;13.344;2023-06-26T00:35:58;16.58;;;9.93;;
16770;SDS011;8503;52.472;13.344;2023-06-26T00:36:42;14.27;;;9.68;;
16770;SDS011;8503;52.472;13.344;2023-06-26T00:37:25;14.93;;;9.75;;
16770;SDS011;8503;52.472;13.344;2023-06-26T00:38:09;18.08;;;9.88;;
16770;SDS011;8503;52.472;13.344;2023-06-26T00:38:53;14.70;;;10.05;;
16770;SDS011;8503;52.472;13.344;2023-06-26T00:39:36;16.73;;;10.20;;
16770;SDS011;8503;52.472;13.344;2023-06-26T00:40:19;15.32;;;10.25;;
16770;SDS011;8503;52.472;13.344;2023-06-26T00:41:02;17.52;;;9.93;;
16770;SDS011;8503;52.472;13.344;2023-06-26T00:41:46;20.20;;;10.40;;
16770;SDS011;8503;52.472;13.344;2023-06-26T00:42:29;17.33;;;10.27;;
16770;SDS011;8503;52.472;13.344;2023-06-26T00:43:13;18.13;;;9.80;;
16770;SDS011;8503;52.472;13.344;2023-06-26T00:43:55;15.20;;;9.43;;
16770;SDS011;8503;52.472;13.344;2023-06-26T00:44:39;18.02;;;10.85;;
16770;SDS011;8503;52.472;13.344;2023-06-26T00:45:22;18.02;;;11.00;;
16770;SDS011;8503;52.472;13.344;2023-06-26T00:46:22;16.67;;;10.50;;
16770;SDS011;8503;52.472;13.344;2023-06-26T00:47:06;18.60;;;9.73;;
16770;SDS011;8503;52.472;13.344;2023-06-26T00:47:56;17.77;;;10.77;;
16770;SDS011;8503;52.472;13.344;2023-06-26T00:48:41;14.80;;;9.80;;
16770;SDS011;8503;52.472;13.344;2023-06-26T00:49:26;17.02;;;10.25;;
16770;SDS011;8503;52.472;13.344;2023-06-26T00:50:11;15.00;;;10.02;;
16770;SDS011;8503;52.472;13.344;2023-06-26T00:50:54;13.77;;;9.70;;
16770;SDS011;8503;52.472;13.344;2023-06-26T00:51:38;18.58;;;11.18;;
16770;SDS011;8503;52.472;13.344;2023-06-26T00:52:22;13.85;;;9.25;;
16770;SDS011;8503;52.472;13.344;2023-06-26T00:53:06;13.35;;;9.43;;
16770;SDS011;8503;52.472;13.344;2023-06-26T00:53:50;18.55;;;9.80;;
16770;SDS011;8503;52.472;13.344;2023-06-26T00:54:34;15.43;;;9.68;;
16770;SDS011;8503;52.472;13.344;2023-06-26T00:55:17;16.75;;;10.35;;
16770;SDS011;8503;52.472;13.344;2023-06-26T00:56:01;17.35;;;10.27;;
16770;SDS011;8503;52.472;13.344;2023-06-26T00:56:45;15.27;;;10.27;;
16770;SDS011;8503;52.472;13.344;2023-06-26T00:57:29;13.32;;;9.00;;
16770;SDS011;8503;52.472;13.344;2023-06-26T00:58:13;18.65;;;10.63;;
16770;SDS011;8503;52.472;13.344;2023-06-26T00:58:56;16.73;;;10.23;;
16770;SDS011;8503;52.472;13.344;2023-06-26T00:59:40;18.38;;;11.10;;
16770;SDS011;8503;52.472;13.344;2023-06-26T01:00:22;18.95;;;11.07;;
16770;SDS011;8503;52.472;13.344;2023-06-26T01:01:07;18.67;;;10.80;;
16770;SDS011;8503;52.472;13.344;2023-06-26T01:01:50;15.68;;;10.32;;
16770;SDS011;8503;52.472;13.344;2023-06-26T01:02:33;20.60;;;11.13;;
16770;SDS011;8503;52.472;13.344;2023-06-26T01:03:17;16.13;;;9.93;;
16770;SDS011;8503;52.472;13.344;2023-06-26T01:04:00;18.48;;;10.75;;
16770;SDS011;8503;52.472;13.344;2023-06-26T01:04:44;17.60;;;10.93;;
16770;SDS011;8503;52.472;13.344;2023-06-26T01:05:28;18.85;;;11.65;;
16770;SDS011;8503;52.472;13.344;2023-06-26T01:06:13;18.10;;;10.38;;
16770;SDS011;8503;52.472;13.344;2023-06-26T01:06:59;17.13;;;10.40;;
16770;SDS011;8503;52.472;13.344;2023-06-26T01:07:44;21.17;;;11.63;;
16770;SDS011;8503;52.472;13.344;2023-06-26T01:08:29;19.35;;;11.20;;
16770;SDS011;8503;52.472;13.344;2023-06-26T01:09:13;19.65;;;10.95;;
16770;SDS011;8503;52.472;13.344;2023-06-26T01:09:58;16.40;;;9.95;;
16770;SDS011;8503;52.472;13.344;2023-06-26T01:10:42;18.05;;;11.40;;
16770;SDS011;8503;52.472;13.344;2023-06-26T01:11:25;18.33;;;10.88;;
16770;SDS011;8503;52.472;13.344;2023-06-26T01:12:10;19.50;;;12.88;;
16770;SDS011;8503;52.472;13.344;2023-06-26T01:12:54;23.15;;;12.00;;
16770;SDS011;8503;52.472;13.344;2023-06-26T01:13:38;20.52;;;12.52;;
16770;SDS011;8503;52.472;13.344;2023-06-26T01:14:23;17.58;;;11.13;;
16770;SDS011;8503;52.472;13.344;2023-06-26T01:15:06;18.98;;;11.23;;
16770;SDS011;8503;52.472;13.344;2023-06-26T01:15:51;19.75;;;10.93;;
16770;SDS011;8503;52.472;13.344;2023-06-26T01:16:35;18.65;;;10.98;;
16770;SDS011;8503;52.472;13.344;2023-06-26T01:17:21;15.23;;;10.57;;
16770;SDS011;8503;52.472;13.344;2023-06-26T01:18:04;20.45;;;11.43;;
16770;SDS011;8503;52.472;13.344;2023-06-26T01:18:48;15.95;;;10.73;;
16770;SDS011;8503;52.472;13.344;2023-06-26T01:19:32;17.95;;;10.98;;
16770;SDS011;8503;52.472;13.344;2023-06-26T01:20:16;15.30;;;9.98;;
16770;SDS011;8503;52.472;13.344;2023-06-26T01:21:01;17.60;;;10.85;;
16770;SDS011;8503;52.472;13.344;2023-06-26T01:21:46;18.23;;;10.93;;
16770;SDS011;8503;52.472;13.344;2023-06-26T01:22:31;19.20;;;10.85;;
16770;SDS011;8503;52.472;13.344;2023-06-26T01:23:29;18.02;;;10.32;;
16770;SDS011;8503;52.472;13.344;2023-06-26T01:24:21;21.17;;;11.48;;
16770;SDS011;8503;52.472;13.344;2023-06-26T01:25:10;19.60;;;11.35;;
16770;SDS011;8503;52.472;13.344;2023-06-26T01:26:10;17.05;;;10.73;;
16770;SDS011;8503;52.472;13.344;2023-06-26T01:27:01;19.63;;;10.75;;
16770;SDS011;8503;52.472;13.344;2023-06-26T01:27:46;19.95;;;10.95;;
16770;SDS011;8503;52.472;13.344;2023-06-26T01:30:01;17.73;;;9.38;;
16770;SDS011;8503;52.472;13.344;2023-06-26T01:30:47;17.15;;;9.85;;
16770;SDS011;8503;52.472;13.344;2023-06-26T01:31:30;18.80;;;11.00;;
16770;SDS011;8503;52.472;13.344;2023-06-26T01:32:14;17.05;;;11.27;;
16770;SDS011;8503;52.472;13.344;2023-06-26T01:32:58;16.15;;;10.35;;
16770;SDS011;8503;52.472;13.344;2023-06-26T01:33:43;18.48;;;11.98;;
16770;SDS011;8503;52.472;13.344;2023-06-26T01:34:27;22.67;;;13.65;;
16770;SDS011;8503;52.472;13.344;2023-06-26T01:35:11;24.20;;;11.73;;
16770;SDS011;8503;52.472;13.344;2023-06-26T01:35:55;19.67;;;11.05;;
16770;SDS011;8503;52.472;13.344;2023-06-26T01:36:38;21.95;;;11.68;;
16770;SDS011;8503;52.472;13.344;2023-06-26T01:37:22;22.10;;;13.10;;
16770;SDS011;8503;52.472;13.344;2023-06-26T01:38:11;19.63;;;11.60;;
16770;SDS011;8503;52.472;13.344;2023-06-26T01:38:56;17.80;;;11.57;;
16770;SDS011;8503;52.472;13.344;2023-06-26T01:39:39;18.70;;;11.82;;
16770;SDS011;8503;52.472;13.344;2023-06-26T01:40:22;16.92;;;10.77;;
16770;SDS011;8503;52.472;13.344;2023-06-26T01:41:05;17.75;;;11.10;;
16770;SDS011;8503;52.472;13.344;2023-06-26T01:41:51;19.52;;;11.20;;
16770;SDS011;8503;52.472;13.344;2023-06-26T01:42:34;16.23;;;11.00;;
16770;SDS011;8503;52.472;13.344;2023-06-26T01:43:18;20.42;;;12.23;;
16770;SDS011;8503;52.472;13.344;2023-06-26T01:44:13;19.10;;;11.18;;
16770;SDS011;8503;52.472;13.344;2023-06-26T01:45:10;19.20;;;11.80;;
16770;SDS011;8503;52.472;13.344;2023-06-26T01:46:01;17.25;;;11.13;;
16770;SDS011;8503;52.472;13.344;2023-06-26T01:46:55;17.88;;;10.95;;
16770;SDS011;8503;52.472;13.344;2023-06-26T01:47:44;19.92;;;10.88;;
16770;SDS011;8503;52.472;13.344;2023-06-26T01:48:34;17.98;;;10.30;;
16770;SDS011;8503;52.472;13.344;2023-06-26T01:49:25;19.67;;;12.45;;
16770;SDS011;8503;52.472;13.344;2023-06-26T01:50:18;19.45;;;10.95;;
16770;SDS011;8503;52.472;13.344;2023-06-26T01:51:08;17.42;;;10.82;;
16770;SDS011;8503;52.472;13.344;2023-06-26T01:51:53;16.08;;;10.48;;
16770;SDS011;8503;52.472;13.344;2023-06-26T01:52:45;17.98;;;11.75;;
16770;SDS011;8503;52.472;13.344;2023-06-26T01:53:41;17.75;;;10.93;;
16770;SDS011;8503;52.472;13.344;2023-06-26T01:54:32;15.43;;;11.45;;
16770;SDS011;8503;52.472;13.344;2023-06-26T01:55:21;17.42;;;10.82;;
16770;SDS011;8503;52.472;13.344;2023-06-26T01:56:17;16.00;;;10.43;;
16770;SDS011;8503;52.472;13.344;2023-06-26T01:57:02;16.20;;;10.30;;
16770;SDS011;8503;52.472;13.344;2023-06-26T01:57:46;17.67;;;10.63;;
16770;SDS011;8503;52.472;13.344;2023-06-26T01:58:30;16.38;;;10.82;;
16770;SDS011;8503;52.472;13.344;2023-06-26T01:59:15;16.65;;;10.48;;
16770;SDS011;8503;52.472;13.344;2023-06-26T02:00:02;13.43;;;9.65;;
16770;SDS011;8503;52.472;13.344;2023-06-26T02:00:47;17.83;;;10.38;;
16770;SDS011;8503;52.472;13.344;2023-06-26T02:01:31;17.30;;;10.43;;
16770;SDS011;8503;52.472;13.344;2023-06-26T02:02:14;16.42;;;11.18;;
16770;SDS011;8503;52.472;13.344;2023-06-26T02:02:58;13.55;;;9.65;;
16770;SDS011;8503;52.472;13.344;2023-06-26T02:03:41;19.63;;;11.23;;
16770;SDS011;8503;52.472;13.344;2023-06-26T02:04:25;21.45;;;11.60;;
16770;SDS011;8503;52.472;13.344;2023-06-26T02:05:08;15.55;;;11.23;;
16770;SDS011;8503;52.472;13.344;2023-06-26T02:05:51;17.55;;;11.35;;
16770;SDS011;8503;52.472;13.344;2023-06-26T02:06:35;17.95;;;11.70;;
16770;SDS011;8503;52.472;13.344;2023-06-26T02:07:18;16.25;;;11.15;;
16770;SDS011;8503;52.472;13.344;2023-06-26T02:08:02;19.90;;;12.18;;
16770;SDS011;8503;52.472;13.344;2023-06-26T02:08:45;18.95;;;11.75;;
16770;SDS011;8503;52.472;13.344;2023-06-26T02:09:31;18.48;;;11.40;;
16770;SDS011;8503;52.472;13.344;2023-06-26T02:10:13;20.05;;;11.50;;
16770;SDS011;8503;52.472;13.344;2023-06-26T02:10:57;17.77;;;12.15;;
16770;SDS011;8503;52.472;13.344;2023-06-26T02:11:40;17.33;;;11.38;;
16770;SDS011;8503;52.472;13.344;2023-06-26T02:12:25;18.40;;;11.70;;
16770;SDS011;8503;52.472;13.344;2023-06-26T02:13:08;16.95;;;11.07;;
16770;SDS011;8503;52.472;13.344;2023-06-26T02:13:52;17.00;;;11.55;;
16770;SDS011;8503;52.472;13.344;2023-06-26T02:14:37;17.17;;;11.35;;
16770;SDS011;8503;52.472;13.344;2023-06-26T02:15:21;19.52;;;12.20;;
16770;SDS011;8503;52.472;13.344;2023-06-26T02:16:03;18.95;;;12.57;;
16770;SDS011;8503;52.472;13.344;2023-06-26T02:16:47;15.88;;;10.95;;
16770;SDS011;8503;52.472;13.344;2023-06-26T02:17:30;23.00;;;13.13;;
16770;SDS011;8503;52.472;13.344;2023-06-26T02:18:14;20.23;;;12.82;;
16770;SDS011;8503;52.472;13.344;2023-06-26T02:18:57;22.10;;;12.30;;
16770;SDS011;8503;52.472;13.344;2023-06-26T02:19:41;22.13;;;12.95;;
16770;SDS011;8503;52.472;13.344;2023-06-26T02:20:28;24.60;;;12.80;;
16770;SDS011;8503;52.472;13.344;2023-06-26T02:21:12;17.73;;;11.68;;
16770;SDS011;8503;52.472;13.344;2023-06-26T02:21:56;17.85;;;12.18;;
16770;SDS011;8503;52.472;13.344;2023-06-26T02:22:39;19.85;;;12.30;;
16770;SDS011;8503;52.472;13.344;2023-06-26T02:23:22;20.48;;;12.60;;
16770;SDS011;8503;52.472;13.344;2023-06-26T02:24:06;25.75;;;13.23;;
16770;SDS011;8503;52.472;13.344;2023-06-26T02:24:49;19.98;;;11.70;;
16770;SDS011;8503;52.472;13.344;2023-06-26T02:25:33;21.77;;;13.60;;
16770;SDS011;8503;52.472;13.344;2023-06-26T02:26:16;20.35;;;12.60;;
16770;SDS011;8503;52.472;13.344;2023-06-26T02:27:00;16.98;;;11.88;;
16770;SDS011;8503;52.472;13.344;2023-06-26T02:27:44;21.63;;;12.93;;
16770;SDS011;8503;52.472;13.344;2023-06-26T02:28:28;19.92;;;12.15;;
16770;SDS011;8503;52.472;13.344;2023-06-26T02:29:12;19.35;;;12.32;;
16770;SDS011;8503;52.472;13.344;2023-06-26T02:29:56;17.90;;;11.90;;
16770;SDS011;8503;52.472;13.344;2023-06-26T02:30:39;18.60;;;12.75;;
16770;SDS011;8503;52.472;13.344;2023-06-26T02:31:22;20.38;;;13.18;;
16770;SDS011;8503;52.472;13.344;2023-06-26T02:32:05;21.15;;;12.90;;
16770;SDS011;8503;52.472;13.344;2023-06-26T02:32:49;19.90;;;12.48;;
16770;SDS011;8503;52.472;13.344;2023-06-26T02:33:32;20.27;;;12.60;;
16770;SDS011;8503;52.472;13.344;2023-06-26T02:34:15;18.98;;;13.27;;
16770;SDS011;8503;52.472;13.344;2023-06-26T02:35:00;19.45;;;12.77;;
16770;SDS011;8503;52.472;13.344;2023-06-26T02:35:43;18.60;;;13.20;;
16770;SDS011;8503;52.472;13.344;2023-06-26T02:36:26;20.75;;;12.40;;
16770;SDS011;8503;52.472;13.344;2023-06-26T02:37:09;17.48;;;12.10;;
16770;SDS011;8503;52.472;13.344;2023-06-26T02:37:53;19.55;;;12.23;;
16770;SDS011;8503;52.472;13.344;2023-06-26T02:38:36;19.58;;;13.38;;
16770;SDS011;8503;52.472;13.344;2023-06-26T02:39:18;19.60;;;13.00;;
16770;SDS011;8503;52.472;13.344;2023-06-26T02:40:02;19.85;;;13.30;;
16770;SDS011;8503;52.472;13.344;2023-06-26T02:40:46;19.67;;;13.75;;
16770;SDS011;8503;52.472;13.344;2023-06-26T02:41:30;19.95;;;13.00;;
16770;SDS011;8503;52.472;13.344;2023-06-26T02:42:13;20.23;;;12.95;;
16770;SDS011;8503;52.472;13.344;2023-06-26T02:42:58;18.33;;;12.77;;
16770;SDS011;8503;52.472;13.344;2023-06-26T02:43:41;16.85;;;12.52;;
16770;SDS011;8503;52.472;13.344;2023-06-26T02:44:23;17.40;;;12.63;;
16770;SDS011;8503;52.472;13.344;2023-06-26T02:45:08;19.23;;;11.73;;
16770;SDS011;8503;52.472;13.344;2023-06-26T02:45:51;18.45;;;12.57;;
16770;SDS011;8503;52.472;13.344;2023-06-26T02:46:35;20.98;;;12.13;;
16770;SDS011;8503;52.472;13.344;2023-06-26T02:47:18;20.42;;;13.48;;
16770;SDS011;8503;52.472;13.344;2023-06-26T02:48:02;19.70;;;13.57;;
16770;SDS011;8503;52.472;13.344;2023-06-26T02:48:45;21.95;;;13.75;;
16770;SDS011;8503;52.472;13.344;2023-06-26T02:49:28;21.35;;;12.43;;
16770;SDS011;8503;52.472;13.344;2023-06-26T02:50:11;19.58;;;13.25;;
16770;SDS011;8503;52.472;13.344;2023-06-26T02:50:54;18.98;;;12.55;;
16770;SDS011;8503;52.472;13.344;2023-06-26T02:51:38;19.35;;;12.38;;
16770;SDS011;8503;52.472;13.344;2023-06-26T02:52:21;19.88;;;12.38;;
16770;SDS011;8503;52.472;13.344;2023-06-26T02:53:05;20.05;;;13.15;;
16770;SDS011;8503;52.472;13.344;2023-06-26T02:53:47;21.55;;;13.10;;
16770;SDS011;8503;52.472;13.344;2023-06-26T02:54:31;20.00;;;12.13;;
16770;SDS011;8503;52.472;13.344;2023-06-26T02:55:14;17.98;;;12.57;;
16770;SDS011;8503;52.472;13.344;2023-06-26T02:55:58;20.23;;;12.90;;
16770;SDS011;8503;52.472;13.344;2023-06-26T02:56:40;22.63;;;13.63;;
16770;SDS011;8503;52.472;13.344;2023-06-26T02:57:28;22.52;;;13.20;;
16770;SDS011;8503;52.472;13.344;2023-06-26T02:58:13;20.33;;;11.88;;
16770;SDS011;8503;52.472;13.344;2023-06-26T02:58:56;19.30;;;12.85;;
16770;SDS011;8503;52.472;13.344;2023-06-26T02:59:39;20.42;;;12.93;;
16770;SDS011;8503;52.472;13.344;2023-06-26T03:00:23;20.85;;;13.23;;
16770;SDS011;8503;52.472;13.344;2023-06-26T03:01:06;19.05;;;12.18;;
16770;SDS011;8503;52.472;13.344;2023-06-26T03:01:50;20.90;;;12.65;;
16770;SDS011;8503;52.472;13.344;2023-06-26T03:02:33;22.65;;;13.32;;
16770;SDS011;8503;52.472;13.344;2023-06-26T03:03:15;19.65;;;12.70;;
16770;SDS011;8503;52.472;13.344;2023-06-26T03:03:59;20.52;;;13.18;;
16770;SDS011;8503;52.472;13.344;2023-06-26T03:04:42;20.55;;;12.77;;
16770;SDS011;8503;52.472;13.344;2023-06-26T03:05:26;19.05;;;12.82;;
16770;SDS011;8503;52.472;13.344;2023-06-26T03:06:09;20.70;;;13.32;;
16770;SDS011;8503;52.472;13.344;2023-06-26T03:06:51;18.48;;;12.95;;
16770;SDS011;8503;52.472;13.344;2023-06-26T03:07:36;18.45;;;12.60;;
16770;SDS011;8503;52.472;13.344;2023-06-26T03:08:18;19.02;;;12.38;;
16770;SDS011;8503;52.472;13.344;2023-06-26T03:09:02;20.20;;;13.77;;
16770;SDS011;8503;52.472;13.344;2023-06-26T03:09:45;20.35;;;13.52;;
16770;SDS011;8503;52.472;13.344;2023-06-26T03:10:29;21.15;;;12.77;;
16770;SDS011;8503;52.472;13.344;2023-06-26T03:11:11;19.38;;;13.40;;
16770;SDS011;8503;52.472;13.344;2023-06-26T03:11:55;19.10;;;13.15;;
16770;SDS011;8503;52.472;13.344;2023-06-26T03:12:38;22.27;;;12.77;;
16770;SDS011;8503;52.472;13.344;2023-06-26T03:13:23;20.08;;;14.00;;
16770;SDS011;8503;52.472;13.344;2023-06-26T03:14:06;18.85;;;13.25;;
16770;SDS011;8503;52.472;13.344;2023-06-26T03:14:50;21.05;;;13.38;;
16770;SDS011;8503;52.472;13.344;2023-06-26T03:15:35;20.08;;;13.23;;
16770;SDS011;8503;52.472;13.344;2023-06-26T03:16:18;21.35;;;13.75;;
16770;SDS011;8503;52.472;13.344;2023-06-26T03:17:02;18.95;;;13.07;;
16770;SDS011;8503;52.472;13.344;2023-06-26T03:17:45;21.83;;;14.05;;
16770;SDS011;8503;52.472;13.344;2023-06-26T03:18:29;19.83;;;13.18;;
16770;SDS011;8503;52.472;13.344;2023-06-26T03:19:12;22.25;;;14.88;;
16770;SDS011;8503;52.472;13.344;2023-06-26T03:19:56;21.73;;;14.60;;
16770;SDS011;8503;52.472;13.344;2023-06-26T03:20:39;20.30;;;14.32;;
16770;SDS011;8503;52.472;13.344;2023-06-26T03:21:23;19.38;;;13.63;;
16770;SDS011;8503;52.472;13.344;2023-06-26T03:22:06;22.52;;;14.30;;
16770;SDS011;8503;52.472;13.344;2023-06-26T03:23:03;18.70;;;12.27;;
16770;SDS011;8503;52.472;13.344;2023-06-26T03:24:14;18.25;;;12.98;;
16770;SDS011;8503;52.472;13.344;2023-06-26T03:25:48;18.00;;;12.43;;
16770;SDS011;8503;52.472;13.344;2023-06-26T03:27:01;20.05;;;12.68;;
16770;SDS011;8503;52.472;13.344;2023-06-26T03:28:14;19.33;;;13.02;;
16770;SDS011;8503;52.472;13.344;2023-06-26T03:30:50;22.23;;;13.35;;
16770;SDS011;8503;52.472;13.344;2023-06-26T03:32:02;23.05;;;13.30;;
16770;SDS011;8503;52.472;13.344;2023-06-26T03:33:02;16.20;;;12.90;;
16770;SDS011;8503;52.472;13.344;2023-06-26T03:34:00;17.48;;;12.57;;
16770;SDS011;8503;52.472;13.344;2023-06-26T03:35:12;20.20;;;12.88;;
16770;SDS011;8503;52.472;13.344;2023-06-26T03:36:44;16.92;;;12.70;;
16770;SDS011;8503;52.472;13.344;2023-06-26T03:38:01;22.52;;;13.73;;
16770;SDS011;8503;52.472;13.344;2023-06-26T03:39:15;20.98;;;13.52;;
16770;SDS011;8503;52.472;13.344;2023-06-26T03:40:31;22.85;;;13.10;;
16770;SDS011;8503;52.472;13.344;2023-06-26T03:41:47;18.55;;;12.18;;
16770;SDS011;8503;52.472;13.344;2023-06-26T03:42:51;22.02;;;14.70;;
16770;SDS011;8503;52.472;13.344;2023-06-26T03:43:52;22.90;;;13.77;;
16770;SDS011;8503;52.472;13.344;2023-06-26T03:50:51;20.23;;;11.48;;
16770;SDS011;8503;52.472;13.344;2023-06-26T03:52:04;16.25;;;11.60;;
16770;SDS011;8503;52.472;13.344;2023-06-26T03:52:57;16.30;;;12.65;;
16770;SDS011;8503;52.472;13.344;2023-06-26T03:54:08;17.42;;;12.57;;
16770;SDS011;8503;52.472;13.344;2023-06-26T03:55:21;21.65;;;13.93;;
16770;SDS011;8503;52.472;13.344;2023-06-26T03:56:20;17.20;;;11.90;;
16770;SDS011;8503;52.472;13.344;2023-06-26T03:57:33;19.02;;;11.82;;
16770;SDS011;8503;52.472;13.344;2023-06-26T03:58:47;19.33;;;12.65;;
16770;SDS011;8503;52.472;13.344;2023-06-26T04:00:00;19.05;;;12.63;;
16770;SDS011;8503;52.472;13.344;2023-06-26T04:01:03;18.23;;;12.85;;
16770;SDS011;8503;52.472;13.344;2023-06-26T04:01:52;22.98;;;13.02;;
16770;SDS011;8503;52.472;13.344;2023-06-26T04:03:25;17.38;;;13.32;;
16770;SDS011;8503;52.472;13.344;2023-06-26T04:04:41;19.70;;;12.75;;
16770;SDS011;8503;52.472;13.344;2023-06-26T04:05:43;20.80;;;13.77;;
16770;SDS011;8503;52.472;13.344;2023-06-26T04:08:34;18.58;;;13.18;;
16770;SDS011;8503;52.472;13.344;2023-06-26T04:09:46;17.30;;;12.52;;
16770;SDS011;8503;52.472;13.344;2023-06-26T04:11:01;20.20;;;13.98;;
16770;SDS011;8503;52.472;13.344;2023-06-26T04:12:14;21.77;;;14.13;;
16770;SDS011;8503;52.472;13.344;2023-06-26T04:13:28;19.67;;;13.35;;
16770;SDS011;8503;52.472;13.344;2023-06-26T04:14:56;18.60;;;13.57;;
16770;SDS011;8503;52.472;13.344;2023-06-26T04:15:59;20.85;;;15.13;;
16770;SDS011;8503;52.472;13.344;2023-06-26T04:17:06;21.73;;;13.80;;
16770;SDS011;8503;52.472;13.344;2023-06-26T04:18:24;22.90;;;13.82;;
16770;SDS011;8503;52.472;13.344;2023-06-26T04:19:23;20.20;;;13.38;;
16770;SDS011;8503;52.472;13.344;2023-06-26T04:20:41;19.45;;;12.90;;
16770;SDS011;8503;52.472;13.344;2023-06-26T04:22:02;17.52;;;12.52;;
16770;SDS011;8503;52.472;13.344;2023-06-26T04:23:13;19.58;;;12.63;;
16770;SDS011;8503;52.472;13.344;2023-06-26T04:24:32;22.75;;;14.93;;
16770;SDS011;8503;52.472;13.344;2023-06-26T04:25:45;19.92;;;13.70;;
16770;SDS011;8503;52.472;13.344;2023-06-26T04:26:56;18.42;;;13.30;;
16770;SDS011;8503;52.472;13.344;2023-06-26T04:28:08;17.83;;;12.70;;
16770;SDS011;8503;52.472;13.344;2023-06-26T04:29:15;18.77;;;12.52;;
16770;SDS011;8503;52.472;13.344;2023-06-26T04:30:15;16.45;;;13.18;;
16770;SDS011;8503;52.472;13.344;2023-06-26T04:31:25;22.17;;;13.52;;
16770;SDS011;8503;52.472;13.344;2023-06-26T04:32:15;19.75;;;13.55;;
16770;SDS011;8503;52.472;13.344;2023-06-26T04:33:41;19.77;;;12.75;;
16770;SDS011;8503;52.472;13.344;2023-06-26T04:34:49;18.27;;;12.90;;
16770;SDS011;8503;52.472;13.344;2023-06-26T04:36:03;21.80;;;14.05;;
16770;SDS011;8503;52.472;13.344;2023-06-26T04:37:16;18.23;;;12.45;;
16770;SDS011;8503;52.472;13.344;2023-06-26T04:38:32;19.98;;;13.40;;
16770;SDS011;8503;52.472;13.344;2023-06-26T04:39:30;20.38;;;12.80;;
16770;SDS011;8503;52.472;13.344;2023-06-26T04:40:31;22.65;;;14.13;;
16770;SDS011;8503;52.472;13.344;2023-06-26T04:42:40;20.85;;;13.73;;
16770;SDS011;8503;52.472;13.344;2023-06-26T04:43:53;18.92;;;13.30;;
16770;SDS011;8503;52.472;13.344;2023-06-26T04:45:05;21.08;;;12.85;;
16770;SDS011;8503;52.472;13.344;2023-06-26T04:46:20;17.42;;;12.73;;
16770;SDS011;8503;52.472;13.344;2023-06-26T04:47:46;21.55;;;14.63;;
16770;SDS011;8503;52.472;13.344;2023-06-26T04:48:44;20.77;;;13.45;;
16770;SDS011;8503;52.472;13.344;2023-06-26T04:49:46;21.15;;;13.65;;
16770;SDS011;8503;52.472;13.344;2023-06-26T04:50:56;18.30;;;13.60;;
16770;SDS011;8503;52.472;13.344;2023-06-26T04:51:55;22.63;;;14.45;;
16770;SDS011;8503;52.472;13.344;2023-06-26T04:53:08;19.23;;;13.50;;
16770;SDS011;8503;52.472;13.344;2023-06-26T04:54:15;22.35;;;13.38;;
16770;SDS011;8503;52.472;13.344;2023-06-26T04:58:59;19.17;;;15.05;;
16770;SDS011;8503;52.472;13.344;2023-06-26T05:00:10;19.58;;;14.10;;
16770;SDS011;8503;52.472;13.344;2023-06-26T05:01:12;19.45;;;13.90;;
16770;SDS011;8503;52.472;13.344;2023-06-26T05:02:10;20.58;;;15.02;;
16770;SDS011;8503;52.472;13.344;2023-06-26T05:03:22;17.95;;;13.52;;
16770;SDS011;8503;52.472;13.344;2023-06-26T05:04:35;17.88;;;14.43;;
16770;SDS011;8503;52.472;13.344;2023-06-26T05:05:48;20.95;;;13.68;;
16770;SDS011;8503;52.472;13.344;2023-06-26T05:06:55;17.77;;;12.68;;
16770;SDS011;8503;52.472;13.344;2023-06-26T05:08:14;18.20;;;13.15;;
16770;SDS011;8503;52.472;13.344;2023-06-26T05:09:28;17.15;;;12.93;;
16770;SDS011;8503;52.472;13.344;2023-06-26T05:10:40;15.68;;;13.15;;
16770;SDS011;8503;52.472;13.344;2023-06-26T05:11:54;19.52;;;12.80;;